createdAt,value
2019-03-25T00:49:29.395Z,25.37
2019-03-25T00:52:00.493Z,29.73
2019-03-25T00:54:31.742Z,39.70
2019-03-25T00:57:03.748Z,64.10
2019-03-25T00:59:35.143Z,91.47
2019-03-25T01:02:06.673Z,111.60
2019-03-25T01:04:37.815Z,73.03
2019-03-25T01:07:08.899Z,63.83
2019-03-25T01:09:39.637Z,78.47
2019-03-25T01:12:10.695Z,51.80
2019-03-25T01:14:41.383Z,48.33
2019-03-25T01:17:12.832Z,49.43
2019-03-25T01:19:43.668Z,34.57
2019-03-25T01:22:14.345Z,32.77
2019-03-25T01:24:45.125Z,42.03
2019-03-25T01:27:16.203Z,30.93
2019-03-25T01:29:47.124Z,18.47
2019-03-25T01:32:17.845Z,25.23
2019-03-25T01:34:48.969Z,21.20
2019-03-25T01:37:20.011Z,20.33
2019-03-25T01:39:50.749Z,20.97
2019-03-25T01:42:21.820Z,16.87
2019-03-25T01:44:53.102Z,22.47
2019-03-25T01:47:24.150Z,21.40
2019-03-25T01:49:56.297Z,27.40
2019-03-25T01:52:27.754Z,22.80
2019-03-25T01:54:59.076Z,20.23
2019-03-25T01:57:30.396Z,24.80
2019-03-25T02:00:01.474Z,21.83
2019-03-25T02:02:32.501Z,22.23
2019-03-25T02:05:03.999Z,19.27
2019-03-25T02:07:35.285Z,23.23
2019-03-25T02:10:07.800Z,23.43
2019-03-25T02:12:39.303Z,25.70
2019-03-25T02:15:10.370Z,20.77
2019-03-25T02:17:41.275Z,22.37
2019-03-25T02:20:11.772Z,23.70
2019-03-25T02:22:43.268Z,20.10
2019-03-25T02:25:24.930Z,23.73
2019-03-25T02:27:47.265Z,21.40
2019-03-25T02:30:18.315Z,28.67
2019-03-25T02:32:49.084Z,24.17
2019-03-25T02:35:19.926Z,22.33
2019-03-25T02:37:50.684Z,24.97
2019-03-25T02:40:21.632Z,19.57
2019-03-25T02:42:52.708Z,19.43
2019-03-25T02:45:23.470Z,16.40
2019-03-25T02:47:54.151Z,20.30
2019-03-25T02:50:24.821Z,20.73
2019-03-25T02:52:55.566Z,20.63
2019-03-25T02:55:40.809Z,20.47
2019-03-25T02:57:59.325Z,22.07
2019-03-25T03:00:33.701Z,21.13
2019-03-25T03:03:05.912Z,18.37
2019-03-25T03:05:37.927Z,24.07
2019-03-25T03:08:08.651Z,27.43
2019-03-25T03:10:39.565Z,28.03
2019-03-25T03:13:10.571Z,25.73
2019-03-25T03:15:41.418Z,31.53
2019-03-25T03:18:12.147Z,22.60
2019-03-25T03:20:42.887Z,32.50
2019-03-25T03:23:13.887Z,30.60
2019-03-25T03:25:56.266Z,37.30
2019-03-25T03:28:17.337Z,28.83
2019-03-25T03:30:49.547Z,30.50
2019-03-25T03:33:20.665Z,24.77
2019-03-25T03:35:51.760Z,40.43
2019-03-25T03:38:22.920Z,47.93
2019-03-25T03:40:55.111Z,37.17
2019-03-25T03:43:26.336Z,36.37
2019-03-25T03:45:57.302Z,29.50
2019-03-25T03:48:27.853Z,26.07
2019-03-25T03:50:59.229Z,36.03
2019-03-25T03:53:30.214Z,31.87
2019-03-25T03:56:13.076Z,35.20
2019-03-25T03:58:34.878Z,33.47
2019-03-25T04:01:05.578Z,50.07
2019-03-25T04:03:36.692Z,51.43
2019-03-25T04:06:08.066Z,40.10
2019-03-25T04:08:39.152Z,38.03
2019-03-25T04:11:10.193Z,44.63
2019-03-25T04:13:41.334Z,40.90
2019-03-25T04:16:12.733Z,39.47
2019-03-25T04:18:43.619Z,38.57
2019-03-25T04:21:14.803Z,44.17
2019-03-25T04:23:46.530Z,35.03
2019-03-25T04:26:28.347Z,40.40
2019-03-25T04:28:50.279Z,35.97
2019-03-25T04:31:21.369Z,28.20
2019-03-25T04:33:52.383Z,22.73
2019-03-25T04:36:23.420Z,22.43
2019-03-25T04:38:54.486Z,22.83
2019-03-25T04:41:25.393Z,26.23
2019-03-25T04:43:56.481Z,27.33
2019-03-25T04:46:27.432Z,33.27
2019-03-25T04:48:58.600Z,27.57
2019-03-25T04:51:29.680Z,35.23
2019-03-25T04:54:00.604Z,39.53
2019-03-25T04:56:39.532Z,32.97
2019-03-25T04:59:05.478Z,37.87
2019-03-25T05:01:36.916Z,38.53
2019-03-25T05:04:09.062Z,35.27
2019-03-25T05:06:41.073Z,38.67
2019-03-25T05:09:12.380Z,32.67
2019-03-25T05:11:43.271Z,32.70
2019-03-25T05:14:14.443Z,36.37
2019-03-25T05:16:45.577Z,38.43
2019-03-25T05:19:16.601Z,40.93
2019-03-25T05:21:48.218Z,37.90
2019-03-25T05:24:19.312Z,51.23
2019-03-25T05:26:51.420Z,45.93
2019-03-25T05:29:22.657Z,46.50
2019-03-25T05:31:53.533Z,48.83
2019-03-25T05:34:24.818Z,43.53
2019-03-25T05:36:55.824Z,49.67
2019-03-25T05:39:26.859Z,44.57
2019-03-25T05:41:57.766Z,38.93
2019-03-25T05:44:28.906Z,42.00
2019-03-25T05:47:00.226Z,45.30
2019-03-25T05:49:31.003Z,48.13
2019-03-25T05:52:02.552Z,48.60
2019-03-25T05:54:33.726Z,46.50
2019-03-25T05:57:04.807Z,39.93
2019-03-25T05:59:36.006Z,34.83
2019-03-25T06:02:06.969Z,31.90
2019-03-25T06:04:37.731Z,27.83
2019-03-25T06:07:08.731Z,28.83
2019-03-25T06:09:40.020Z,23.00
2019-03-25T06:12:10.922Z,21.10
2019-03-25T06:14:43.353Z,17.20
2019-03-25T06:17:14.154Z,23.80
2019-03-25T06:19:44.819Z,20.33
2019-03-25T06:22:16.786Z,18.37
2019-03-25T06:24:48.135Z,18.63
2019-03-25T06:27:19.302Z,27.83
2019-03-25T06:29:50.532Z,13.43
2019-03-25T06:32:21.659Z,14.93
2019-03-25T06:34:52.541Z,15.80
2019-03-25T06:37:23.859Z,19.70
2019-03-25T06:39:55.052Z,12.37
2019-03-25T06:42:26.017Z,21.40
2019-03-25T06:44:56.976Z,20.27
2019-03-25T06:47:27.954Z,21.67
2019-03-25T06:49:59.027Z,24.87
2019-03-25T06:52:30.176Z,19.23
2019-03-25T06:55:01.125Z,20.77
2019-03-25T06:57:33.209Z,19.07
2019-03-25T07:00:07.732Z,26.60
2019-03-25T07:02:39.329Z,20.40
2019-03-25T07:05:10.672Z,20.57
2019-03-25T07:07:41.758Z,16.27
2019-03-25T07:10:12.849Z,18.10
2019-03-25T07:12:44.601Z,16.53
2019-03-25T07:15:18.852Z,17.23
2019-03-25T07:17:50.520Z,14.67
2019-03-25T07:20:25.535Z,18.83
2019-03-25T07:22:56.667Z,15.47
2019-03-25T07:25:27.638Z,23.03
2019-03-25T07:27:58.807Z,12.73
2019-03-25T07:30:29.457Z,19.33
2019-03-25T07:33:00.856Z,18.27
2019-03-25T07:35:31.680Z,13.97
2019-03-25T07:38:02.985Z,17.70
2019-03-25T07:40:34.341Z,16.53
2019-03-25T07:43:05.381Z,18.67
2019-03-25T07:45:36.560Z,10.17
2019-03-25T07:48:07.821Z,16.23
2019-03-25T07:50:38.859Z,15.53
2019-03-25T07:53:09.819Z,12.50
2019-03-25T07:55:41.424Z,14.53
2019-03-25T07:58:12.433Z,17.77
2019-03-25T08:00:43.938Z,14.17
2019-03-25T08:03:15.501Z,14.60
2019-03-25T08:05:47.398Z,16.00
2019-03-25T08:08:18.481Z,16.57
2019-03-25T08:10:50.392Z,16.00
2019-03-25T08:13:21.488Z,21.67
2019-03-25T08:15:52.939Z,11.50
2019-03-25T08:18:23.922Z,15.87
2019-03-25T08:20:54.858Z,15.17
2019-03-25T08:23:25.559Z,10.70
2019-03-25T08:25:57.319Z,15.77
2019-03-25T08:28:28.517Z,14.90
2019-03-25T08:31:00.398Z,14.93
2019-03-25T08:33:31.478Z,19.63
2019-03-25T08:36:03.621Z,12.70
2019-03-25T08:38:34.517Z,11.13
2019-03-25T08:41:06.438Z,12.90
2019-03-25T08:43:37.601Z,18.97
2019-03-25T08:46:08.678Z,14.17
2019-03-25T08:48:39.759Z,17.23
2019-03-25T08:51:11.197Z,18.80
2019-03-25T08:53:42.055Z,11.73
2019-03-25T08:56:13.679Z,15.90
2019-03-25T08:58:45.518Z,17.43
2019-03-25T09:01:16.398Z,19.10
2019-03-25T09:03:49.016Z,15.87
2019-03-25T09:06:23.238Z,15.27
2019-03-25T09:08:54.397Z,10.27
2019-03-25T09:11:25.806Z,13.37
2019-03-25T09:13:57.356Z,18.10
2019-03-25T09:16:29.010Z,13.77
2019-03-25T09:19:00.585Z,12.60
2019-03-25T09:21:31.720Z,15.30
2019-03-25T09:24:02.355Z,15.87
2019-03-25T09:26:33.687Z,15.40
2019-03-25T09:29:04.548Z,10.77
2019-03-25T09:31:37.035Z,13.05
2019-03-25T09:34:09.308Z,19.63
2019-03-25T09:36:40.725Z,15.27
2019-03-25T09:39:11.457Z,11.50
2019-03-25T09:41:43.831Z,13.27
2019-03-25T09:44:15.656Z,11.53
2019-03-25T09:46:47.215Z,10.98
2019-03-25T09:49:19.436Z,12.70
2019-03-25T09:51:52.897Z,11.75
2019-03-25T09:54:24.030Z,11.83
2019-03-25T09:56:55.841Z,11.65
2019-03-25T09:59:27.267Z,14.03
2019-03-25T10:01:58.449Z,10.93
2019-03-25T10:04:29.658Z,12.20
2019-03-25T10:07:02.127Z,13.90
2019-03-25T10:09:34.769Z,11.95
2019-03-25T10:12:06.138Z,10.00
2019-03-25T10:14:38.417Z,10.67
2019-03-25T10:17:09.147Z,8.90
2019-03-25T10:19:40.096Z,11.13
2019-03-25T10:22:11.116Z,9.73
2019-03-25T10:24:42.157Z,10.82
2019-03-25T10:27:12.631Z,12.33
2019-03-25T10:29:43.753Z,10.80
2019-03-25T10:32:14.709Z,13.85
2019-03-25T10:34:45.887Z,13.18
2019-03-25T10:37:17.080Z,7.85
2019-03-25T10:39:47.691Z,17.07
2019-03-25T10:42:19.287Z,13.00
2019-03-25T10:44:51.153Z,9.18
2019-03-25T10:47:21.789Z,10.58
2019-03-25T10:49:52.445Z,8.93
2019-03-25T10:52:23.839Z,9.83
2019-03-25T10:57:26.304Z,7.70
2019-03-25T10:59:58.666Z,11.78
2019-03-25T11:02:30.071Z,12.33
2019-03-25T11:05:01.549Z,10.78
2019-03-25T11:07:33.109Z,9.00
2019-03-25T11:10:07.251Z,10.70
2019-03-25T11:12:38.761Z,16.37
2019-03-25T11:15:10.169Z,14.10
2019-03-25T11:17:41.128Z,13.72
2019-03-25T11:20:14.347Z,9.47
2019-03-25T11:22:46.109Z,11.33
2019-03-25T11:25:17.736Z,7.67
2019-03-25T11:27:54.372Z,7.05
2019-03-25T11:30:25.586Z,4.15
2019-03-25T11:32:57.166Z,4.80
2019-03-25T11:35:28.210Z,2.57
2019-03-25T11:37:59.788Z,3.00
2019-03-25T11:40:31.789Z,6.83
2019-03-25T11:43:02.550Z,3.83
2019-03-25T11:45:34.691Z,6.20
2019-03-25T11:48:06.549Z,6.27
2019-03-25T11:50:37.673Z,5.53
2019-03-25T11:53:08.792Z,4.90
2019-03-25T11:55:39.495Z,5.07
2019-03-25T11:58:11.209Z,6.37
2019-03-25T12:00:42.842Z,5.93
2019-03-25T12:03:14.074Z,4.20
2019-03-25T12:05:44.709Z,5.67
2019-03-25T12:08:16.203Z,4.33
2019-03-25T12:10:46.714Z,4.87
2019-03-25T12:13:17.523Z,5.33
2019-03-25T12:15:48.650Z,3.97
2019-03-25T12:18:19.193Z,3.30
2019-03-25T12:20:50.575Z,2.93
2019-03-25T12:23:26.560Z,2.70
2019-03-25T12:25:57.909Z,2.80
2019-03-25T12:28:28.731Z,3.57
2019-03-25T12:30:59.211Z,4.50
2019-03-25T12:33:29.652Z,3.67
2019-03-25T12:36:00.178Z,3.73
2019-03-25T12:38:30.677Z,5.83
2019-03-25T12:41:01.487Z,4.43
2019-03-25T12:43:31.845Z,2.90
2019-03-25T12:46:04.620Z,3.17
2019-03-25T12:48:35.094Z,2.50
2019-03-25T12:51:06.034Z,2.63
2019-03-25T12:53:36.725Z,2.30
2019-03-25T12:56:07.263Z,8.43
2019-03-25T12:58:38.588Z,3.67
2019-03-25T13:01:10.063Z,1.83
2019-03-25T13:03:40.887Z,3.73
2019-03-25T13:06:11.664Z,2.47
2019-03-25T13:08:42.139Z,5.43
2019-03-25T13:11:12.550Z,2.47
2019-03-25T13:13:42.930Z,2.47
2019-03-25T13:16:13.397Z,3.43
2019-03-25T13:18:44.029Z,2.60
2019-03-25T13:21:14.497Z,1.60
2019-03-25T13:23:44.956Z,2.57
2019-03-25T13:26:15.365Z,2.67
2019-03-25T13:28:45.837Z,3.93
2019-03-25T13:31:16.379Z,6.43
2019-03-25T13:33:47.054Z,5.00
2019-03-25T13:36:17.669Z,4.53
2019-03-25T13:38:48.093Z,3.73
2019-03-25T13:41:18.490Z,2.60
2019-03-25T13:43:58.565Z,3.97
2019-03-25T13:46:44.517Z,3.10
2019-03-25T13:49:17.434Z,5.40
2019-03-25T13:51:48.069Z,6.87
2019-03-25T13:54:18.485Z,5.33
2019-03-25T13:56:48.935Z,5.27
2019-03-25T13:59:20.229Z,5.30
2019-03-25T14:01:52.276Z,4.53
2019-03-25T14:04:23.591Z,8.33
2019-03-25T14:06:55.130Z,7.83
2019-03-25T14:09:26.530Z,5.57
2019-03-25T14:11:57.790Z,6.67
2019-03-25T14:14:28.485Z,4.43
2019-03-25T14:17:00.249Z,6.00
2019-03-25T14:19:31.879Z,6.50
2019-03-25T14:22:03.008Z,5.73
2019-03-25T14:24:34.981Z,6.57
2019-03-25T14:27:05.635Z,6.77
2019-03-25T14:29:37.333Z,5.47
2019-03-25T14:32:07.864Z,8.20
2019-03-25T14:34:44.914Z,6.07
2019-03-25T14:37:14.716Z,7.60
2019-03-25T14:39:46.191Z,7.60
2019-03-25T14:42:20.316Z,6.87
2019-03-25T14:44:51.069Z,7.30
2019-03-25T14:47:26.749Z,5.00
2019-03-25T14:49:58.535Z,8.53
2019-03-25T14:52:29.581Z,7.60
2019-03-25T14:55:00.968Z,6.80
2019-03-25T14:57:31.925Z,5.30
2019-03-25T15:00:07.905Z,8.80
2019-03-25T15:02:38.690Z,11.30
2019-03-25T15:05:09.730Z,7.87
2019-03-25T15:07:42.221Z,4.33
2019-03-25T15:10:13.340Z,2.67
2019-03-25T15:12:45.551Z,2.60
2019-03-25T15:15:16.869Z,1.50
2019-03-25T15:17:47.654Z,1.80
2019-03-25T15:20:18.104Z,1.97
2019-03-25T15:22:51.444Z,2.50
2019-03-25T15:25:23.593Z,3.13
2019-03-25T15:27:54.632Z,4.40
2019-03-25T15:30:35.417Z,5.20
2019-03-25T15:33:00.057Z,5.50
2019-03-25T15:35:32.951Z,5.03
2019-03-25T15:38:05.194Z,5.10
2019-03-25T15:40:36.825Z,4.77
2019-03-25T15:43:08.029Z,5.13
2019-03-25T15:45:38.871Z,6.83
2019-03-25T15:48:10.710Z,7.10
2019-03-25T15:50:42.261Z,9.83
2019-03-25T15:53:13.752Z,8.00
2019-03-25T15:55:44.540Z,8.23
2019-03-25T15:58:25.633Z,5.70
2019-03-25T16:00:49.121Z,7.00
2019-03-25T16:03:19.999Z,8.03
2019-03-25T16:05:51.360Z,6.23
2019-03-25T16:08:22.166Z,6.70
2019-03-25T16:10:53.676Z,4.97
2019-03-25T16:13:24.820Z,6.20
2019-03-25T16:15:56.252Z,10.83
2019-03-25T16:18:30.830Z,19.27
2019-03-25T16:21:02.413Z,19.77
2019-03-25T16:23:33.791Z,20.90
2019-03-25T16:26:08.568Z,10.80
2019-03-25T16:28:40.061Z,43.70
2019-03-25T16:31:10.845Z,13.13
2019-03-25T16:33:41.243Z,10.27
2019-03-25T16:36:15.315Z,6.20
2019-03-25T16:38:45.939Z,7.17
2019-03-25T16:41:17.471Z,6.60
2019-03-25T16:43:48.087Z,11.93
2019-03-25T16:46:19.112Z,7.40
2019-03-25T16:48:50.229Z,7.93
2019-03-25T16:51:21.029Z,5.73
2019-03-25T16:53:51.722Z,9.37
2019-03-25T16:56:27.956Z,8.77
2019-03-25T16:59:05.841Z,6.97
2019-03-25T17:01:38.651Z,6.00
2019-03-25T17:04:10.111Z,8.00
2019-03-25T17:06:40.959Z,10.07
2019-03-25T17:09:12.033Z,5.83
2019-03-25T17:11:44.212Z,8.90
2019-03-25T17:14:15.409Z,6.40
2019-03-25T17:16:46.597Z,7.10
2019-03-25T17:19:19.110Z,11.13
2019-03-25T17:21:58.090Z,10.47
2019-03-25T17:24:32.368Z,24.93
2019-03-25T17:27:14.871Z,9.33
2019-03-25T17:29:51.271Z,10.17
2019-03-25T17:32:22.150Z,8.73
2019-03-25T17:34:56.533Z,6.37
2019-03-25T17:37:27.491Z,6.27
2019-03-25T17:39:59.023Z,8.40
2019-03-25T17:42:31.389Z,8.67
2019-03-25T17:45:02.275Z,9.10
2019-03-25T17:47:34.697Z,5.73
2019-03-25T17:50:09.010Z,7.33
2019-03-25T17:52:40.492Z,6.43
2019-03-25T17:55:11.672Z,19.10
2019-03-25T17:57:42.910Z,36.60
2019-03-25T18:00:15.621Z,7.30
2019-03-25T18:02:48.516Z,11.40
2019-03-25T18:05:20.240Z,8.47
2019-03-25T18:07:51.599Z,6.63
2019-03-25T18:10:23.270Z,9.10
2019-03-25T18:12:54.058Z,11.40
2019-03-25T18:15:25.358Z,7.53
2019-03-25T18:17:56.853Z,7.23
2019-03-25T18:20:36.532Z,5.57
2019-03-25T18:23:07.198Z,11.63
2019-03-25T18:25:38.106Z,12.47
2019-03-25T18:28:08.618Z,6.73
2019-03-25T18:30:39.024Z,7.60
2019-03-25T18:33:09.550Z,9.57
2019-03-25T18:35:40.753Z,23.43
2019-03-25T18:38:12.611Z,8.43
2019-03-25T18:40:44.244Z,10.93
2019-03-25T18:43:16.146Z,8.10
2019-03-25T18:45:47.534Z,4.83
2019-03-25T18:48:18.320Z,7.43
2019-03-25T18:50:49.402Z,9.77
2019-03-25T18:53:21.187Z,7.17
2019-03-25T18:55:52.242Z,7.63
2019-03-25T18:58:23.851Z,8.10
2019-03-25T19:00:56.630Z,6.50
2019-03-25T19:03:27.641Z,5.07
2019-03-25T19:06:00.297Z,6.37
2019-03-25T19:08:31.941Z,5.63
2019-03-25T19:11:04.266Z,11.83
2019-03-25T19:13:35.709Z,6.97
2019-03-25T19:16:07.086Z,21.63
2019-03-25T19:18:38.176Z,11.30
2019-03-25T19:21:08.829Z,7.30
2019-03-25T19:23:40.705Z,11.90
2019-03-25T19:26:12.332Z,6.50
2019-03-25T19:28:45.791Z,8.67
2019-03-25T19:31:23.035Z,8.00
2019-03-25T19:33:53.715Z,27.90
2019-03-25T19:36:24.166Z,16.00
2019-03-25T19:38:54.584Z,11.83
2019-03-25T19:41:32.222Z,11.13
2019-03-25T19:43:57.535Z,31.43
2019-03-25T19:46:28.004Z,12.77
2019-03-25T19:48:58.452Z,8.83
2019-03-25T19:51:28.843Z,9.40
2019-03-25T19:53:59.309Z,15.87
2019-03-25T19:56:50.850Z,18.23
2019-03-25T19:59:33.687Z,12.03
2019-03-25T20:02:05.671Z,38.80
2019-03-25T20:04:37.509Z,25.03
2019-03-25T20:07:10.193Z,26.17
2019-03-25T20:09:42.606Z,25.93
2019-03-25T20:12:14.516Z,20.53
2019-03-25T20:14:46.771Z,8.63
2019-03-25T20:17:20.474Z,10.97
2019-03-25T20:19:53.888Z,14.60
2019-03-25T20:22:27.415Z,16.50
2019-03-25T20:24:59.833Z,11.37
2019-03-25T20:27:33.234Z,6.87
2019-03-25T20:30:10.238Z,7.87
2019-03-25T20:32:44.128Z,10.73
2019-03-25T20:35:17.960Z,9.67
2019-03-25T20:37:51.001Z,10.10
2019-03-25T20:40:32.936Z,10.30
2019-03-25T20:43:06.015Z,9.10
2019-03-25T20:45:38.159Z,7.10
2019-03-25T20:48:10.187Z,10.47
2019-03-25T20:50:41.936Z,7.23
2019-03-25T20:53:14.190Z,17.90
2019-03-25T20:55:47.225Z,12.60
2019-03-25T20:58:19.968Z,8.50
2019-03-25T21:00:54.727Z,11.90
2019-03-25T21:03:26.622Z,16.93
2019-03-25T21:05:58.262Z,9.37
2019-03-25T21:08:30.579Z,15.30
2019-03-25T21:11:04.442Z,13.53
2019-03-25T21:13:36.428Z,19.87
2019-03-25T21:16:08.159Z,18.23
2019-03-25T21:18:42.744Z,10.40
2019-03-25T21:21:22.243Z,12.97
2019-03-25T21:23:58.037Z,15.27
2019-03-25T21:26:45.531Z,26.83
2019-03-25T21:29:22.892Z,15.13
2019-03-25T21:31:55.749Z,16.70
2019-03-25T21:34:27.931Z,18.03
2019-03-25T21:36:58.428Z,19.47
2019-03-25T21:39:29.531Z,10.90
2019-03-25T21:42:00.546Z,21.33
2019-03-25T21:44:31.752Z,25.77
2019-03-25T21:47:04.264Z,34.87
2019-03-25T21:49:35.496Z,26.33
2019-03-25T21:52:06.357Z,15.90
2019-03-25T21:54:37.770Z,15.93
2019-03-25T21:57:09.136Z,43.63
2019-03-25T21:59:40.559Z,24.70
2019-03-25T23:02:56.345Z,13.27
2019-03-25T23:05:27.505Z,11.50
2019-03-25T23:07:58.196Z,10.30
2019-03-25T23:10:29.173Z,12.23
2019-03-25T23:13:00.733Z,10.53
2019-03-25T23:15:32.394Z,13.03
2019-03-25T23:18:03.763Z,14.80
2019-03-25T23:20:35.671Z,10.03
2019-03-25T23:23:06.951Z,14.63
2019-03-25T23:25:38.232Z,12.47
2019-03-25T23:28:09.222Z,12.47
2019-03-25T23:30:40.728Z,9.77
2019-03-25T23:33:11.616Z,11.90
2019-03-25T23:35:43.029Z,11.70
2019-03-25T23:38:14.028Z,10.87
2019-03-25T23:40:45.226Z,11.53
2019-03-25T23:43:16.746Z,10.23
2019-03-25T23:45:47.527Z,11.07
2019-03-25T23:48:18.447Z,14.03
2019-03-25T23:50:49.729Z,12.67
2019-03-25T23:53:22.285Z,10.73
2019-03-25T23:55:53.704Z,13.43
2019-03-25T23:58:24.787Z,13.23
